sensor_id;sensor_type;location;lat;lon;timestamp;pressure;altitude;pressure_sealevel;temperature;humidity
37291;BME280;23175;-33.706;151.094;2022-09-02T00:01:39;100513.83;;;12.12;49.80
37291;BME280;23175;-33.706;151.094;2022-09-02T00:04:12;100504.51;;;12.03;51.03
37291;BME280;23175;-33.706;151.094;2022-09-02T00:06:44;100500.35;;;13.39;47.75
37291;BME280;23175;-33.706;151.094;2022-09-02T00:09:16;100499.36;;;14.49;45.40
37291;BME280;23175;-33.706;151.094;2022-09-02T00:11:49;100499.90;;;13.06;47.17
37291;BME280;23175;-33.706;151.094;2022-09-02T00:14:22;100493.44;;;11.52;49.34
37291;BME280;23175;-33.706;151.094;2022-09-02T00:16:52;100494.16;;;12.26;49.31
37291;BME280;23175;-33.706;151.094;2022-09-02T00:19:24;100489.23;;;13.80;46.34
37291;BME280;23175;-33.706;151.094;2022-09-02T00:21:56;100490.45;;;12.76;48.42
37291;BME280;23175;-33.706;151.094;2022-09-02T00:24:26;100492.83;;;13.99;46.72
37291;BME280;23175;-33.706;151.094;2022-09-02T00:26:57;100486.39;;;11.33;49.63
37291;BME280;23175;-33.706;151.094;2022-09-02T00:29:28;100487.43;;;13.37;47.28
37291;BME280;23175;-33.706;151.094;2022-09-02T00:31:58;100481.42;;;14.45;44.75
37291;BME280;23175;-33.706;151.094;2022-09-02T00:34:28;100487.75;;;13.65;45.95
37291;BME280;23175;-33.706;151.094;2022-09-02T00:36:59;100485.75;;;12.58;47.84
37291;BME280;23175;-33.706;151.094;2022-09-02T00:39:29;100480.81;;;14.56;44.01
37291;BME280;23175;-33.706;151.094;2022-09-02T00:41:59;100492.32;;;12.66;46.76
37291;BME280;23175;-33.706;151.094;2022-09-02T00:44:29;100482.36;;;13.50;46.19
37291;BME280;23175;-33.706;151.094;2022-09-02T00:47:00;100476.46;;;14.83;45.20
37291;BME280;23175;-33.706;151.094;2022-09-02T00:49:32;100471.09;;;13.16;46.01
37291;BME280;23175;-33.706;151.094;2022-09-02T00:52:06;100474.42;;;13.14;47.47
37291;BME280;23175;-33.706;151.094;2022-09-02T00:54:42;100468.80;;;13.30;46.10
37291;BME280;23175;-33.706;151.094;2022-09-02T00:57:17;100465.76;;;12.07;48.31
37291;BME280;23175;-33.706;151.094;2022-09-02T00:59:53;100464.44;;;13.32;46.75
37291;BME280;23175;-33.706;151.094;2022-09-02T01:02:26;100463.07;;;12.00;49.05
37291;BME280;23175;-33.706;151.094;2022-09-02T01:04:56;100462.42;;;12.90;48.26
37291;BME280;23175;-33.706;151.094;2022-09-02T01:07:28;100455.30;;;11.96;49.81
37291;BME280;23175;-33.706;151.094;2022-09-02T01:10:00;100450.71;;;12.17;49.59
37291;BME280;23175;-33.706;151.094;2022-09-02T01:12:31;100449.37;;;12.72;49.27
37291;BME280;23175;-33.706;151.094;2022-09-02T01:15:05;100448.62;;;12.69;49.97
37291;BME280;23175;-33.706;151.094;2022-09-02T01:17:45;100442.50;;;13.16;48.60
37291;BME280;23175;-33.706;151.094;2022-09-02T01:20:19;100443.97;;;12.53;49.88
37291;BME280;23175;-33.706;151.094;2022-09-02T01:22:50;100441.41;;;10.97;52.01
37291;BME280;23175;-33.706;151.094;2022-09-02T01:25:22;100445.86;;;14.05;48.31
37291;BME280;23175;-33.706;151.094;2022-09-02T01:27:57;100443.81;;;15.70;44.66
37291;BME280;23175;-33.706;151.094;2022-09-02T01:30:29;100438.19;;;14.46;45.78
37291;BME280;23175;-33.706;151.094;2022-09-02T01:32:59;100431.05;;;13.67;48.35
37291;BME280;23175;-33.706;151.094;2022-09-02T01:35:30;100434.96;;;14.14;46.80
37291;BME280;23175;-33.706;151.094;2022-09-02T01:38:01;100443.40;;;13.64;48.16
37291;BME280;23175;-33.706;151.094;2022-09-02T01:40:32;100442.21;;;11.28;50.21
37291;BME280;23175;-33.706;151.094;2022-09-02T01:43:06;100445.11;;;13.34;48.66
37291;BME280;23175;-33.706;151.094;2022-09-02T01:45:39;100450.82;;;13.14;48.69
37291;BME280;23175;-33.706;151.094;2022-09-02T01:48:11;100452.65;;;11.87;50.17
37291;BME280;23175;-33.706;151.094;2022-09-02T01:50:45;100446.55;;;12.27;49.73
37291;BME280;23175;-33.706;151.094;2022-09-02T01:53:16;100440.81;;;12.84;49.77
37291;BME280;23175;-33.706;151.094;2022-09-02T01:55:46;100438.96;;;13.78;48.23
37291;BME280;23175;-33.706;151.094;2022-09-02T01:58:16;100434.26;;;11.86;51.15
37291;BME280;23175;-33.706;151.094;2022-09-02T02:00:47;100430.47;;;13.39;48.88
37291;BME280;23175;-33.706;151.094;2022-09-02T02:03:16;100432.70;;;14.13;47.22
37291;BME280;23175;-33.706;151.094;2022-09-02T02:05:47;100433.94;;;10.73;53.92
37291;BME280;23175;-33.706;151.094;2022-09-02T02:08:17;100434.74;;;12.80;50.66
37291;BME280;23175;-33.706;151.094;2022-09-02T02:10:48;100429.98;;;13.40;49.43
37291;BME280;23175;-33.706;151.094;2022-09-02T02:13:18;100429.18;;;13.05;49.89
37291;BME280;23175;-33.706;151.094;2022-09-02T02:15:48;100424.51;;;13.76;49.67
37291;BME280;23175;-33.706;151.094;2022-09-02T02:18:18;100428.48;;;11.80;52.70
37291;BME280;23175;-33.706;151.094;2022-09-02T02:20:49;100424.47;;;12.50;52.28
37291;BME280;23175;-33.706;151.094;2022-09-02T02:23:19;100418.36;;;14.64;48.41
37291;BME280;23175;-33.706;151.094;2022-09-02T02:25:49;100413.29;;;12.91;50.36
37291;BME280;23175;-33.706;151.094;2022-09-02T02:28:19;100415.29;;;13.06;49.86
37291;BME280;23175;-33.706;151.094;2022-09-02T02:30:50;100412.49;;;12.44;51.84
37291;BME280;23175;-33.706;151.094;2022-09-02T02:33:20;100405.56;;;12.59;52.29
37291;BME280;23175;-33.706;151.094;2022-09-02T02:35:51;100400.42;;;13.45;50.08
37291;BME280;23175;-33.706;151.094;2022-09-02T02:38:22;100400.90;;;12.65;51.37
37291;BME280;23175;-33.706;151.094;2022-09-02T02:40:54;100392.14;;;14.18;48.54
37291;BME280;23175;-33.706;151.094;2022-09-02T02:43:26;100391.88;;;12.25;50.66
37291;BME280;23175;-33.706;151.094;2022-09-02T02:45:56;100391.29;;;14.23;47.22
37291;BME280;23175;-33.706;151.094;2022-09-02T02:48:27;100388.92;;;11.64;52.39
37291;BME280;23175;-33.706;151.094;2022-09-02T02:50:57;100391.50;;;11.18;53.18
37291;BME280;23175;-33.706;151.094;2022-09-02T02:53:27;100385.44;;;10.95;53.78
37291;BME280;23175;-33.706;151.094;2022-09-02T02:55:57;100384.75;;;11.69;52.68
37291;BME280;23175;-33.706;151.094;2022-09-02T02:58:28;100386.02;;;12.19;52.14
37291;BME280;23175;-33.706;151.094;2022-09-02T03:00:59;100387.23;;;11.65;52.89
37291;BME280;23175;-33.706;151.094;2022-09-02T03:03:29;100388.95;;;11.24;53.76
37291;BME280;23175;-33.706;151.094;2022-09-02T03:05:59;100395.69;;;12.73;51.61
37291;BME280;23175;-33.706;151.094;2022-09-02T03:08:30;100397.17;;;10.82;54.34
37291;BME280;23175;-33.706;151.094;2022-09-02T03:11:01;100397.31;;;10.59;54.08
37291;BME280;23175;-33.706;151.094;2022-09-02T03:13:32;100397.42;;;12.16;52.57
37291;BME280;23175;-33.706;151.094;2022-09-02T03:16:04;100396.61;;;12.40;50.54
37291;BME280;23175;-33.706;151.094;2022-09-02T03:18:34;100402.64;;;13.53;48.57
37291;BME280;23175;-33.706;151.094;2022-09-02T03:21:08;100405.74;;;13.49;49.41
37291;BME280;23175;-33.706;151.094;2022-09-02T03:23:38;100405.19;;;11.80;51.78
37291;BME280;23175;-33.706;151.094;2022-09-02T03:26:12;100408.87;;;12.58;49.45
37291;BME280;23175;-33.706;151.094;2022-09-02T03:28:42;100405.64;;;13.63;48.05
37291;BME280;23175;-33.706;151.094;2022-09-02T03:31:20;100404.07;;;13.23;48.84
37291;BME280;23175;-33.706;151.094;2022-09-02T03:33:51;100406.98;;;13.24;49.09
37291;BME280;23175;-33.706;151.094;2022-09-02T03:36:23;100403.81;;;13.10;48.49
37291;BME280;23175;-33.706;151.094;2022-09-02T03:38:54;100404.77;;;12.56;49.76
37291;BME280;23175;-33.706;151.094;2022-09-02T03:41:25;100403.95;;;11.49;51.19
37291;BME280;23175;-33.706;151.094;2022-09-02T03:43:55;100406.33;;;11.41;51.56
37291;BME280;23175;-33.706;151.094;2022-09-02T03:46:26;100412.02;;;11.60;50.37
37291;BME280;23175;-33.706;151.094;2022-09-02T03:48:56;100419.19;;;12.74;48.07
37291;BME280;23175;-33.706;151.094;2022-09-02T03:51:27;100425.96;;;11.69;50.91
37291;BME280;23175;-33.706;151.094;2022-09-02T03:53:57;100422.23;;;13.88;47.09
37291;BME280;23175;-33.706;151.094;2022-09-02T03:56:26;100417.74;;;9.36;53.75
37291;BME280;23175;-33.706;151.094;2022-09-02T03:58:56;100417.81;;;11.61;50.52
37291;BME280;23175;-33.706;151.094;2022-09-02T04:01:28;100427.05;;;11.35;51.54
37291;BME280;23175;-33.706;151.094;2022-09-02T04:03:58;100420.89;;;12.08;50.31
37291;BME280;23175;-33.706;151.094;2022-09-02T04:06:29;100423.48;;;11.50;50.72
37291;BME280;23175;-33.706;151.094;2022-09-02T04:08:58;100421.27;;;10.40;52.68
37291;BME280;23175;-33.706;151.094;2022-09-02T04:11:29;100413.46;;;11.74;50.76
37291;BME280;23175;-33.706;151.094;2022-09-02T04:13:59;100411.83;;;11.89;49.58
37291;BME280;23175;-33.706;151.094;2022-09-02T04:16:30;100416.74;;;13.26;47.63
37291;BME280;23175;-33.706;151.094;2022-09-02T04:19:00;100416.91;;;12.36;48.38
37291;BME280;23175;-33.706;151.094;2022-09-02T04:21:33;100414.76;;;11.95;48.75
37291;BME280;23175;-33.706;151.094;2022-09-02T04:24:04;100418.65;;;12.72;47.95
37291;BME280;23175;-33.706;151.094;2022-09-02T04:26:34;100415.59;;;10.82;49.61
37291;BME280;23175;-33.706;151.094;2022-09-02T04:29:04;100416.59;;;11.10;49.98
37291;BME280;23175;-33.706;151.094;2022-09-02T04:31:35;100413.54;;;10.02;51.06
37291;BME280;23175;-33.706;151.094;2022-09-02T04:34:05;100399.63;;;12.01;48.50
37291;BME280;23175;-33.706;151.094;2022-09-02T04:36:35;100404.26;;;12.63;47.26
37291;BME280;23175;-33.706;151.094;2022-09-02T04:39:05;100402.88;;;12.17;48.33
37291;BME280;23175;-33.706;151.094;2022-09-02T04:41:37;100406.51;;;11.39;49.19
37291;BME280;23175;-33.706;151.094;2022-09-02T04:44:07;100408.10;;;12.41;48.10
37291;BME280;23175;-33.706;151.094;2022-09-02T04:46:37;100405.07;;;12.42;47.66
37291;BME280;23175;-33.706;151.094;2022-09-02T04:49:07;100402.77;;;12.11;48.90
37291;BME280;23175;-33.706;151.094;2022-09-02T04:51:37;100406.12;;;13.49;46.50
37291;BME280;23175;-33.706;151.094;2022-09-02T04:54:07;100408.24;;;12.69;47.85
37291;BME280;23175;-33.706;151.094;2022-09-02T04:56:38;100405.29;;;12.10;48.80
37291;BME280;23175;-33.706;151.094;2022-09-02T04:59:09;100407.30;;;12.39;47.88
37291;BME280;23175;-33.706;151.094;2022-09-02T05:01:39;100420.54;;;12.86;48.17
37291;BME280;23175;-33.706;151.094;2022-09-02T05:04:10;100416.42;;;11.14;51.47
37291;BME280;23175;-33.706;151.094;2022-09-02T05:06:40;100412.95;;;10.37;52.11
37291;BME280;23175;-33.706;151.094;2022-09-02T05:09:10;100407.85;;;10.30;53.13
37291;BME280;23175;-33.706;151.094;2022-09-02T05:11:41;100410.28;;;11.48;51.36
37291;BME280;23175;-33.706;151.094;2022-09-02T05:14:10;100404.37;;;10.34;53.00
37291;BME280;23175;-33.706;151.094;2022-09-02T05:16:41;100397.76;;;10.50;52.94
37291;BME280;23175;-33.706;151.094;2022-09-02T05:19:11;100409.47;;;10.65;53.55
37291;BME280;23175;-33.706;151.094;2022-09-02T05:21:43;100409.93;;;10.63;53.44
37291;BME280;23175;-33.706;151.094;2022-09-02T05:24:14;100412.63;;;9.88;53.87
37291;BME280;23175;-33.706;151.094;2022-09-02T05:26:44;100428.02;;;10.16;54.07
37291;BME280;23175;-33.706;151.094;2022-09-02T05:29:14;100432.53;;;10.91;53.06
37291;BME280;23175;-33.706;151.094;2022-09-02T05:31:44;100426.82;;;11.91;51.27
37291;BME280;23175;-33.706;151.094;2022-09-02T05:34:15;100437.10;;;11.56;51.14
37291;BME280;23175;-33.706;151.094;2022-09-02T05:36:46;100443.58;;;10.47;53.28
37291;BME280;23175;-33.706;151.094;2022-09-02T05:39:16;100455.33;;;10.94;52.57
37291;BME280;23175;-33.706;151.094;2022-09-02T05:41:46;100452.63;;;12.38;49.71
37291;BME280;23175;-33.706;151.094;2022-09-02T05:44:16;100457.38;;;10.34;53.11
37291;BME280;23175;-33.706;151.094;2022-09-02T05:46:46;100463.61;;;11.20;51.39
37291;BME280;23175;-33.706;151.094;2022-09-02T05:49:17;100467.14;;;9.22;54.36
37291;BME280;23175;-33.706;151.094;2022-09-02T05:51:49;100469.30;;;9.78;55.02
37291;BME280;23175;-33.706;151.094;2022-09-02T05:54:21;100466.30;;;8.21;57.50
37291;BME280;23175;-33.706;151.094;2022-09-02T05:56:54;100472.81;;;11.00;52.16
37291;BME280;23175;-33.706;151.094;2022-09-02T05:59:27;100473.32;;;9.66;54.09
37291;BME280;23175;-33.706;151.094;2022-09-02T06:01:58;100473.15;;;9.34;54.36
37291;BME280;23175;-33.706;151.094;2022-09-02T06:04:28;100477.06;;;10.38;53.43
37291;BME280;23175;-33.706;151.094;2022-09-02T06:06:59;100481.10;;;11.23;51.83
37291;BME280;23175;-33.706;151.094;2022-09-02T06:09:28;100486.25;;;9.68;54.65
37291;BME280;23175;-33.706;151.094;2022-09-02T06:11:59;100484.70;;;9.35;55.16
37291;BME280;23175;-33.706;151.094;2022-09-02T06:14:29;100484.32;;;9.41;55.10
37291;BME280;23175;-33.706;151.094;2022-09-02T06:17:00;100481.76;;;10.26;52.65
37291;BME280;23175;-33.706;151.094;2022-09-02T06:19:30;100474.38;;;11.08;51.01
37291;BME280;23175;-33.706;151.094;2022-09-02T06:22:01;100488.53;;;8.82;55.24
37291;BME280;23175;-33.706;151.094;2022-09-02T06:24:32;100485.50;;;8.55;56.25
37291;BME280;23175;-33.706;151.094;2022-09-02T06:27:02;100485.25;;;9.32;55.68
37291;BME280;23175;-33.706;151.094;2022-09-02T06:29:32;100481.19;;;10.61;53.02
37291;BME280;23175;-33.706;151.094;2022-09-02T06:32:03;100482.97;;;8.94;55.57
37291;BME280;23175;-33.706;151.094;2022-09-02T06:34:33;100486.00;;;9.67;55.18
37291;BME280;23175;-33.706;151.094;2022-09-02T06:37:03;100478.94;;;9.01;56.18
37291;BME280;23175;-33.706;151.094;2022-09-02T06:39:33;100474.26;;;10.77;51.71
37291;BME280;23175;-33.706;151.094;2022-09-02T06:42:04;100478.00;;;9.03;55.63
37291;BME280;23175;-33.706;151.094;2022-09-02T06:44:34;100473.35;;;9.14;55.03
37291;BME280;23175;-33.706;151.094;2022-09-02T06:47:04;100474.20;;;9.64;54.93
37291;BME280;23175;-33.706;151.094;2022-09-02T06:49:34;100469.73;;;10.43;53.18
37291;BME280;23175;-33.706;151.094;2022-09-02T06:52:05;100465.98;;;9.94;54.18
37291;BME280;23175;-33.706;151.094;2022-09-02T06:54:35;100466.33;;;9.60;54.30
37291;BME280;23175;-33.706;151.094;2022-09-02T06:57:06;100462.67;;;9.80;54.94
37291;BME280;23175;-33.706;151.094;2022-09-02T06:59:36;100465.30;;;10.92;53.24
37291;BME280;23175;-33.706;151.094;2022-09-02T07:02:06;100464.37;;;11.74;51.27
37291;BME280;23175;-33.706;151.094;2022-09-02T07:04:36;100467.94;;;9.17;54.99
37291;BME280;23175;-33.706;151.094;2022-09-02T07:07:08;100459.19;;;11.69;51.82
37291;BME280;23175;-33.706;151.094;2022-09-02T07:09:39;100463.01;;;10.79;51.97
37291;BME280;23175;-33.706;151.094;2022-09-02T07:12:10;100463.70;;;10.49;53.55
37291;BME280;23175;-33.706;151.094;2022-09-02T07:14:42;100465.34;;;9.92;53.59
37291;BME280;23175;-33.706;151.094;2022-09-02T07:17:14;100469.15;;;11.63;51.37
37291;BME280;23175;-33.706;151.094;2022-09-02T07:19:44;100476.18;;;9.01;55.18
37291;BME280;23175;-33.706;151.094;2022-09-02T07:22:14;100479.99;;;10.34;54.24
37291;BME280;23175;-33.706;151.094;2022-09-02T07:24:45;100480.16;;;10.72;51.55
37291;BME280;23175;-33.706;151.094;2022-09-02T07:27:15;100481.29;;;11.53;50.48
37291;BME280;23175;-33.706;151.094;2022-09-02T07:29:45;100488.76;;;10.73;51.48
37291;BME280;23175;-33.706;151.094;2022-09-02T07:32:16;100501.18;;;11.10;51.42
37291;BME280;23175;-33.706;151.094;2022-09-02T07:34:46;100506.77;;;11.40;50.64
37291;BME280;23175;-33.706;151.094;2022-09-02T07:37:17;100510.33;;;11.30;51.61
37291;BME280;23175;-33.706;151.094;2022-09-02T07:39:47;100517.81;;;9.78;54.70
37291;BME280;23175;-33.706;151.094;2022-09-02T07:42:17;100518.82;;;11.08;52.85
37291;BME280;23175;-33.706;151.094;2022-09-02T07:44:47;100526.46;;;9.00;55.87
37291;BME280;23175;-33.706;151.094;2022-09-02T07:47:18;100523.34;;;11.09;53.69
37291;BME280;23175;-33.706;151.094;2022-09-02T07:49:47;100533.85;;;8.22;57.89
37291;BME280;23175;-33.706;151.094;2022-09-02T07:52:17;100530.38;;;10.56;54.23
37291;BME280;23175;-33.706;151.094;2022-09-02T07:54:48;100536.68;;;8.68;56.95
37291;BME280;23175;-33.706;151.094;2022-09-02T07:57:18;100538.56;;;10.64;53.85
37291;BME280;23175;-33.706;151.094;2022-09-02T07:59:48;100530.68;;;9.53;54.35
37291;BME280;23175;-33.706;151.094;2022-09-02T08:02:19;100533.31;;;9.57;54.66
37291;BME280;23175;-33.706;151.094;2022-09-02T08:04:49;100529.04;;;10.91;53.00
37291;BME280;23175;-33.706;151.094;2022-09-02T08:07:20;100524.30;;;12.36;50.52
37291;BME280;23175;-33.706;151.094;2022-09-02T08:09:50;100520.37;;;12.62;48.60
37291;BME280;23175;-33.706;151.094;2022-09-02T08:12:20;100527.70;;;12.06;50.32
37291;BME280;23175;-33.706;151.094;2022-09-02T08:14:50;100529.79;;;12.35;49.02
37291;BME280;23175;-33.706;151.094;2022-09-02T08:17:21;100526.00;;;10.74;51.37
37291;BME280;23175;-33.706;151.094;2022-09-02T08:19:50;100533.41;;;9.79;54.61
37291;BME280;23175;-33.706;151.094;2022-09-02T08:22:21;100545.82;;;9.69;54.79
37291;BME280;23175;-33.706;151.094;2022-09-02T08:24:51;100543.43;;;8.79;57.49
37291;BME280;23175;-33.706;151.094;2022-09-02T08:27:20;100546.04;;;8.84;58.80
37291;BME280;23175;-33.706;151.094;2022-09-02T08:29:51;100546.75;;;8.17;59.51
37291;BME280;23175;-33.706;151.094;2022-09-02T08:32:20;100546.72;;;11.10;53.30
37291;BME280;23175;-33.706;151.094;2022-09-02T08:34:51;100553.30;;;9.95;54.75
37291;BME280;23175;-33.706;151.094;2022-09-02T08:37:21;100554.42;;;9.59;55.67
37291;BME280;23175;-33.706;151.094;2022-09-02T08:39:50;100552.73;;;11.21;52.58
37291;BME280;23175;-33.706;151.094;2022-09-02T08:42:23;100547.70;;;10.96;52.65
37291;BME280;23175;-33.706;151.094;2022-09-02T08:45:03;100556.91;;;10.97;53.37
37291;BME280;23175;-33.706;151.094;2022-09-02T08:47:36;100558.19;;;8.12;57.31
37291;BME280;23175;-33.706;151.094;2022-09-02T08:50:12;100555.82;;;10.99;53.28
37291;BME280;23175;-33.706;151.094;2022-09-02T08:52:47;100555.60;;;10.96;53.19
37291;BME280;23175;-33.706;151.094;2022-09-02T08:55:27;100563.27;;;10.51;53.50
37291;BME280;23175;-33.706;151.094;2022-09-02T08:57:58;100566.82;;;10.83;54.09
37291;BME280;23175;-33.706;151.094;2022-09-02T09:00:34;100565.11;;;10.48;53.81
37291;BME280;23175;-33.706;151.094;2022-09-02T09:03:15;100569.88;;;11.82;52.20
37291;BME280;23175;-33.706;151.094;2022-09-02T09:05:54;100579.87;;;10.24;53.92
37291;BME280;23175;-33.706;151.094;2022-09-02T09:08:34;100571.77;;;10.34;54.18
37291;BME280;23175;-33.706;151.094;2022-09-02T09:11:12;100577.84;;;8.65;58.56
37291;BME280;23175;-33.706;151.094;2022-09-02T09:13:56;100574.46;;;12.53;50.88
37291;BME280;23175;-33.706;151.094;2022-09-02T09:16:39;100580.38;;;11.56;52.28
37291;BME280;23175;-33.706;151.094;2022-09-02T09:19:13;100584.20;;;10.56;54.52
37291;BME280;23175;-33.706;151.094;2022-09-02T09:21:44;100581.07;;;10.59;53.68
37291;BME280;23175;-33.706;151.094;2022-09-02T09:24:24;100579.05;;;11.95;51.07
37291;BME280;23175;-33.706;151.094;2022-09-02T09:26:55;100579.87;;;9.89;54.28
37291;BME280;23175;-33.706;151.094;2022-09-02T09:29:26;100592.29;;;12.14;50.74
37291;BME280;23175;-33.706;151.094;2022-09-02T09:32:01;100586.35;;;12.30;51.03
37291;BME280;23175;-33.706;151.094;2022-09-02T09:35:07;100593.98;;;12.77;50.61
37291;BME280;23175;-33.706;151.094;2022-09-02T09:37:39;100609.22;;;10.51;54.28
37291;BME280;23175;-33.706;151.094;2022-09-02T09:40:25;100615.71;;;11.87;54.37
37291;BME280;23175;-33.706;151.094;2022-09-02T09:42:58;100614.82;;;9.80;56.51
37291;BME280;23175;-33.706;151.094;2022-09-02T09:45:41;100617.40;;;10.20;56.36
37291;BME280;23175;-33.706;151.094;2022-09-02T09:48:24;100617.07;;;11.65;55.27
37291;BME280;23175;-33.706;151.094;2022-09-02T09:51:27;100609.61;;;10.60;57.06
37291;BME280;23175;-33.706;151.094;2022-09-02T09:54:14;100604.85;;;13.39;52.28
37291;BME280;23175;-33.706;151.094;2022-09-02T09:56:45;100612.01;;;12.03;53.62
37291;BME280;23175;-33.706;151.094;2022-09-02T09:59:36;100611.64;;;13.10;51.77
37291;BME280;23175;-33.706;151.094;2022-09-02T10:02:20;100609.89;;;13.63;51.10
37291;BME280;23175;-33.706;151.094;2022-09-02T10:04:51;100614.62;;;10.74;55.65
37291;BME280;23175;-33.706;151.094;2022-09-02T10:07:40;100611.27;;;10.48;56.62
37291;BME280;23175;-33.706;151.094;2022-09-02T10:10:17;100613.44;;;10.41;56.72
37291;BME280;23175;-33.706;151.094;2022-09-02T10:12:50;100618.85;;;8.72;59.49
37291;BME280;23175;-33.706;151.094;2022-09-02T10:15:35;100628.98;;;10.19;57.18
37291;BME280;23175;-33.706;151.094;2022-09-02T10:18:17;100626.53;;;9.87;57.42
37291;BME280;23175;-33.706;151.094;2022-09-02T10:20:58;100634.97;;;8.87;58.25
37291;BME280;23175;-33.706;151.094;2022-09-02T10:23:41;100632.44;;;9.84;56.58
37291;BME280;23175;-33.706;151.094;2022-09-02T10:26:21;100635.05;;;9.66;56.43
37291;BME280;23175;-33.706;151.094;2022-09-02T10:29:08;100631.86;;;11.20;52.97
37291;BME280;23175;-33.706;151.094;2022-09-02T10:31:45;100629.29;;;8.85;57.89
37291;BME280;23175;-33.706;151.094;2022-09-02T10:34:27;100630.78;;;9.45;57.26
37291;BME280;23175;-33.706;151.094;2022-09-02T10:37:10;100626.25;;;8.64;57.17
37291;BME280;23175;-33.706;151.094;2022-09-02T10:40:02;100621.25;;;10.53;53.89
37291;BME280;23175;-33.706;151.094;2022-09-02T10:42:47;100622.96;;;7.98;58.66
37291;BME280;23175;-33.706;151.094;2022-09-02T10:45:29;100621.59;;;10.46;53.65
37291;BME280;23175;-33.706;151.094;2022-09-02T10:48:11;100625.73;;;10.52;53.22
37291;BME280;23175;-33.706;151.094;2022-09-02T10:50:49;100627.57;;;10.66;53.50
37291;BME280;23175;-33.706;151.094;2022-09-02T10:53:33;100631.57;;;11.24;51.68
37291;BME280;23175;-33.706;151.094;2022-09-02T10:56:10;100625.45;;;12.04;51.68
37291;BME280;23175;-33.706;151.094;2022-09-02T10:58:46;100629.48;;;10.84;51.49
37291;BME280;23175;-33.706;151.094;2022-09-02T11:01:21;100633.37;;;9.87;53.36
37291;BME280;23175;-33.706;151.094;2022-09-02T11:04:01;100624.69;;;9.15;53.90
37291;BME280;23175;-33.706;151.094;2022-09-02T11:06:38;100628.88;;;10.30;50.35
37291;BME280;23175;-33.706;151.094;2022-09-02T11:09:13;100631.91;;;10.27;50.14
37291;BME280;23175;-33.706;151.094;2022-09-02T11:11:54;100629.17;;;12.25;48.33
37291;BME280;23175;-33.706;151.094;2022-09-02T11:14:30;100629.12;;;10.97;49.54
37291;BME280;23175;-33.706;151.094;2022-09-02T11:17:06;100627.01;;;12.01;48.71
37291;BME280;23175;-33.706;151.094;2022-09-02T11:19:41;100631.05;;;8.99;52.05
37291;BME280;23175;-33.706;151.094;2022-09-02T11:22:21;100631.35;;;9.63;50.63
37291;BME280;23175;-33.706;151.094;2022-09-02T11:24:57;100632.54;;;9.32;51.35
37291;BME280;23175;-33.706;151.094;2022-09-02T11:27:40;100625.39;;;9.61;50.85
37291;BME280;23175;-33.706;151.094;2022-09-02T11:30:15;100626.76;;;9.67;50.86
37291;BME280;23175;-33.706;151.094;2022-09-02T11:32:51;100623.72;;;10.41;50.89
37291;BME280;23175;-33.706;151.094;2022-09-02T11:35:26;100623.26;;;8.10;53.04
37291;BME280;23175;-33.706;151.094;2022-09-02T11:38:00;100628.73;;;10.69;50.18
37291;BME280;23175;-33.706;151.094;2022-09-02T11:40:35;100627.85;;;9.65;51.49
37291;BME280;23175;-33.706;151.094;2022-09-02T11:43:24;100623.65;;;10.14;50.68
37291;BME280;23175;-33.706;151.094;2022-09-02T11:46:47;100622.64;;;10.85;49.51
37291;BME280;23175;-33.706;151.094;2022-09-02T11:49:34;100621.21;;;10.00;50.30
37291;BME280;23175;-33.706;151.094;2022-09-02T11:52:27;100621.45;;;9.62;50.48
37291;BME280;23175;-33.706;151.094;2022-09-02T11:55:08;100627.61;;;8.80;52.98
37291;BME280;23175;-33.706;151.094;2022-09-02T11:57:39;100625.84;;;10.97;48.50
37291;BME280;23175;-33.706;151.094;2022-09-02T12:00:25;100632.15;;;9.11;51.08
37291;BME280;23175;-33.706;151.094;2022-09-02T12:03:00;100627.51;;;8.69;52.31
37291;BME280;23175;-33.706;151.094;2022-09-02T12:06:12;100637.55;;;9.88;50.70
37291;BME280;23175;-33.706;151.094;2022-09-02T12:09:42;100631.21;;;9.96;50.22
37291;BME280;23175;-33.706;151.094;2022-09-02T12:13:02;100626.12;;;11.93;46.86
37291;BME280;23175;-33.706;151.094;2022-09-02T12:15:32;100624.66;;;10.55;48.07
37291;BME280;23175;-33.706;151.094;2022-09-02T12:18:12;100630.10;;;11.31;47.60
37291;BME280;23175;-33.706;151.094;2022-09-02T12:21:08;100626.25;;;11.82;46.66
37291;BME280;23175;-33.706;151.094;2022-09-02T12:25:50;100623.52;;;11.18;47.82
37291;BME280;23175;-33.706;151.094;2022-09-02T12:28:26;100618.71;;;11.51;47.58
37291;BME280;23175;-33.706;151.094;2022-09-02T12:31:16;100622.27;;;11.82;46.30
37291;BME280;23175;-33.706;151.094;2022-09-02T12:34:52;100616.66;;;11.13;46.31
37291;BME280;23175;-33.706;151.094;2022-09-02T12:37:56;100630.63;;;9.98;49.68
37291;BME280;23175;-33.706;151.094;2022-09-02T12:40:34;100633.50;;;10.04;48.84
37291;BME280;23175;-33.706;151.094;2022-09-02T12:43:22;100635.76;;;10.52;47.88
37291;BME280;23175;-33.706;151.094;2022-09-02T12:45:59;100627.06;;;11.29;46.68
37291;BME280;23175;-33.706;151.094;2022-09-02T12:48:38;100631.31;;;11.18;45.74
37291;BME280;23175;-33.706;151.094;2022-09-02T12:51:10;100626.46;;;8.55;49.74
37291;BME280;23175;-33.706;151.094;2022-09-02T12:54:23;100627.66;;;11.53;45.23
37291;BME280;23175;-33.706;151.094;2022-09-02T12:56:54;100634.52;;;8.95;50.02
37291;BME280;23175;-33.706;151.094;2022-09-02T12:59:29;100635.36;;;9.86;49.09
37291;BME280;23175;-33.706;151.094;2022-09-02T13:02:09;100637.19;;;9.24;50.03